createdAt,value
2022-10-14T00:00:34.345Z,8.72
2022-10-14T00:03:36.699Z,8.74
2022-10-14T00:06:38.236Z,8.93
2022-10-14T00:09:42.012Z,8.96
2022-10-14T00:12:45.423Z,8.90
2022-10-14T00:15:46.946Z,8.98
2022-10-14T00:18:48.691Z,8.95
2022-10-14T00:21:50.258Z,8.84
2022-10-14T00:24:51.828Z,8.75
2022-10-14T00:27:58.428Z,8.63
2022-10-14T00:31:00.643Z,8.49
2022-10-14T00:34:02.192Z,8.46
2022-10-14T00:37:03.851Z,8.42
2022-10-14T00:40:06.025Z,8.38
2022-10-14T00:43:10.081Z,8.35
2022-10-14T00:46:11.599Z,8.36
2022-10-14T00:49:22.208Z,8.39
2022-10-14T00:52:24.543Z,8.43
2022-10-14T00:55:26.980Z,8.46
2022-10-14T00:58:28.531Z,8.52
2022-10-14T01:01:30.105Z,8.53
2022-10-14T01:04:31.634Z,8.50
2022-10-14T01:07:52.009Z,8.42
2022-10-14T01:11:08.193Z,8.37
2022-10-14T01:14:09.749Z,8.38
2022-10-14T01:17:14.495Z,8.34
2022-10-14T01:20:45.692Z,8.41
2022-10-14T01:24:09.791Z,8.79
2022-10-14T01:27:26.665Z,9.13
2022-10-14T01:30:34.663Z,9.37
2022-10-14T01:33:38.340Z,9.43
2022-10-14T01:36:43.045Z,9.55
2022-10-14T01:39:45.932Z,9.74
2022-10-14T01:42:47.593Z,9.70
2022-10-14T01:45:49.168Z,9.79
2022-10-14T01:48:59.010Z,9.80
2022-10-14T01:52:07.675Z,9.80
2022-10-14T01:55:10.016Z,9.52
2022-10-14T01:58:12.537Z,9.20
2022-10-14T02:01:14.142Z,8.96
2022-10-14T02:04:16.389Z,8.93
2022-10-14T02:07:33.020Z,9.33
2022-10-14T02:11:02.339Z,9.53
2022-10-14T02:14:13.451Z,9.37
2022-10-14T02:17:36.849Z,8.98
2022-10-14T02:20:42.702Z,8.79
2022-10-14T02:23:49.613Z,8.53
2022-10-14T02:26:51.352Z,8.33
2022-10-14T02:29:53.404Z,8.26
2022-10-14T02:32:54.981Z,8.27
2022-10-14T02:35:56.633Z,8.33
2022-10-14T02:38:58.912Z,8.55
2022-10-14T02:42:00.501Z,8.79
2022-10-14T02:45:02.097Z,8.98
2022-10-14T02:48:03.843Z,9.21
2022-10-14T02:51:05.493Z,9.28
2022-10-14T02:54:07.088Z,9.45
2022-10-14T02:57:08.930Z,9.49
2022-10-14T03:00:11.046Z,9.54
2022-10-14T03:03:13.453Z,9.56
2022-10-14T03:06:15.165Z,9.63
2022-10-14T03:09:17.321Z,9.63
2022-10-14T03:12:22.160Z,9.56
2022-10-14T03:15:24.996Z,9.54
2022-10-14T03:18:27.603Z,9.51
2022-10-14T03:21:35.094Z,9.45
2022-10-14T03:24:36.680Z,9.39
2022-10-14T03:27:56.800Z,9.31
2022-10-14T03:31:10.946Z,9.35
2022-10-14T03:34:35.348Z,8.96
2022-10-14T03:37:47.552Z,8.69
2022-10-14T03:40:54.306Z,8.57
2022-10-14T03:43:56.444Z,8.49
2022-10-14T03:46:58.269Z,8.37
2022-10-14T03:50:05.198Z,8.16
2022-10-14T03:53:12.986Z,8.13
2022-10-14T03:56:14.712Z,8.03
2022-10-14T03:59:16.812Z,7.96
2022-10-14T04:02:23.372Z,7.80
2022-10-14T04:05:33.710Z,7.72
2022-10-14T04:08:38.863Z,7.61
2022-10-14T04:12:06.273Z,7.50
2022-10-14T04:15:21.641Z,7.52
2022-10-14T04:18:58.861Z,7.59
2022-10-14T04:22:00.592Z,7.57
2022-10-14T04:25:02.796Z,7.54
2022-10-14T04:28:04.601Z,7.57
2022-10-14T04:31:18.266Z,7.59
2022-10-14T04:34:27.230Z,7.58
2022-10-14T04:37:29.942Z,7.63
2022-10-14T04:40:44.730Z,7.45
2022-10-14T04:43:46.639Z,7.39
2022-10-14T04:46:57.689Z,7.43
2022-10-14T04:50:01.185Z,7.35
2022-10-14T04:53:05.212Z,7.43
2022-10-14T04:56:07.316Z,7.39
2022-10-14T04:59:15.909Z,7.33
2022-10-14T05:02:44.305Z,7.29
2022-10-14T05:05:46.204Z,7.25
2022-10-14T05:08:48.162Z,7.16
2022-10-14T05:11:49.761Z,7.12
2022-10-14T05:14:56.355Z,7.10
2022-10-14T05:18:04.557Z,7.16
2022-10-14T05:21:21.369Z,7.20
2022-10-14T05:24:35.173Z,7.19
2022-10-14T05:27:37.482Z,7.23
2022-10-14T05:30:39.460Z,7.40
2022-10-14T05:33:45.324Z,7.54
2022-10-14T05:36:47.280Z,7.61
2022-10-14T05:39:50.296Z,7.65
2022-10-14T05:42:54.897Z,7.75
2022-10-14T05:45:56.497Z,7.78
2022-10-14T05:49:02.562Z,7.77
2022-10-14T05:52:04.314Z,7.79
2022-10-14T05:55:08.309Z,7.76
2022-10-14T05:58:10.392Z,7.73
2022-10-14T06:01:15.637Z,7.78
2022-10-14T06:04:18.581Z,7.85
2022-10-14T06:07:20.279Z,7.85
2022-10-14T06:10:22.755Z,7.71
2022-10-14T06:13:24.362Z,7.68
2022-10-14T06:16:26.518Z,7.64
2022-10-14T06:19:28.435Z,7.43
2022-10-14T06:22:30.857Z,7.48
2022-10-14T06:25:32.634Z,7.54
2022-10-14T06:28:34.290Z,7.69
2022-10-14T06:31:35.879Z,7.68
2022-10-14T06:34:37.470Z,7.69
2022-10-14T06:37:39.042Z,7.78
2022-10-14T06:40:40.645Z,7.83
2022-10-14T06:43:42.264Z,7.96
2022-10-14T06:46:44.086Z,8.09
2022-10-14T06:49:45.628Z,8.22
2022-10-14T06:52:47.192Z,8.26
2022-10-14T06:55:48.720Z,8.25
2022-10-14T06:58:54.213Z,8.25
2022-10-14T07:01:55.957Z,8.28
2022-10-14T07:04:57.565Z,8.30
2022-10-14T07:11:05.568Z,8.31
2022-10-14T07:14:07.996Z,8.28
2022-10-14T07:17:09.789Z,8.23
2022-10-14T07:20:12.442Z,8.30
2022-10-14T07:23:14.034Z,8.57
2022-10-14T07:26:15.596Z,8.63
2022-10-14T07:29:17.313Z,8.65
2022-10-14T07:32:18.970Z,8.66
2022-10-14T07:35:20.706Z,8.69
2022-10-14T07:38:22.507Z,8.71
2022-10-14T07:41:24.587Z,8.73
2022-10-14T07:44:27.375Z,8.74
2022-10-14T07:47:29.349Z,8.82
2022-10-14T07:50:30.925Z,9.06
2022-10-14T07:53:32.525Z,9.29
2022-10-14T07:56:35.205Z,9.48
2022-10-14T07:59:36.727Z,9.54
2022-10-14T08:02:38.280Z,9.63
2022-10-14T08:05:39.861Z,9.74
2022-10-14T08:08:41.582Z,9.77
2022-10-14T08:11:43.397Z,9.77
2022-10-14T08:14:44.998Z,9.83
2022-10-14T08:17:46.593Z,9.88
2022-10-14T08:20:48.244Z,9.82
2022-10-14T08:23:49.857Z,9.77
2022-10-14T08:26:52.545Z,9.80
2022-10-14T08:29:54.410Z,9.95
2022-10-14T08:32:56.033Z,10.09
2022-10-14T08:35:57.781Z,10.26
2022-10-14T08:38:59.940Z,10.42
2022-10-14T08:42:07.689Z,10.52
2022-10-14T08:45:10.982Z,10.56
2022-10-14T08:48:13.762Z,10.59
2022-10-14T08:51:15.947Z,10.65
2022-10-14T08:54:43.821Z,10.71
2022-10-14T08:57:49.725Z,10.79
2022-10-14T09:00:51.942Z,10.92
2022-10-14T09:04:03.450Z,10.97
2022-10-14T09:07:04.961Z,11.04
2022-10-14T09:10:07.949Z,11.10
2022-10-14T09:13:15.633Z,11.21
2022-10-14T09:16:22.109Z,11.25
2022-10-14T09:19:23.948Z,11.39
2022-10-14T09:22:26.033Z,11.54
2022-10-14T09:25:27.613Z,11.83
2022-10-14T09:28:36.856Z,12.00
2022-10-14T09:31:38.463Z,12.02
2022-10-14T09:34:41.155Z,12.03
2022-10-14T09:37:42.684Z,12.00
2022-10-14T09:40:45.234Z,11.77
2022-10-14T09:44:05.525Z,11.86
2022-10-14T09:47:09.447Z,11.79
2022-10-14T09:50:19.926Z,11.78
2022-10-14T09:53:26.561Z,11.87
2022-10-14T09:56:31.815Z,11.89
2022-10-14T09:59:33.699Z,11.89
2022-10-14T10:02:44.725Z,12.00
2022-10-14T10:05:46.493Z,12.22
2022-10-14T10:08:54.082Z,12.48
2022-10-14T10:11:56.146Z,12.62
2022-10-14T10:14:58.997Z,12.83
2022-10-14T10:18:00.665Z,13.00
2022-10-14T10:21:02.283Z,13.15
2022-10-14T10:24:03.949Z,13.25
2022-10-14T10:27:09.829Z,13.17
2022-10-14T10:30:16.214Z,13.11
2022-10-14T10:33:28.785Z,12.99
2022-10-14T10:36:41.566Z,13.27
2022-10-14T10:39:48.824Z,13.32
2022-10-14T10:43:02.670Z,13.63
2022-10-14T10:46:04.247Z,14.01
2022-10-14T10:49:10.350Z,14.09
2022-10-14T10:52:30.759Z,14.09
2022-10-14T10:58:49.783Z,15.06
2022-10-14T11:02:10.191Z,14.08
2022-10-14T11:05:24.133Z,13.51
2022-10-14T11:09:06.183Z,12.99
2022-10-14T11:12:21.133Z,12.55
2022-10-14T11:15:35.573Z,12.05
2022-10-14T11:18:47.591Z,11.80
2022-10-14T11:21:49.167Z,12.54
2022-10-14T11:24:54.720Z,12.98
2022-10-14T11:27:57.292Z,13.13
2022-10-14T11:31:28.657Z,12.56
2022-10-14T11:34:30.222Z,12.23
2022-10-14T11:37:31.709Z,12.09
2022-10-14T11:40:37.972Z,11.94
2022-10-14T11:43:42.010Z,11.53
2022-10-14T11:46:44.232Z,11.50
2022-10-14T11:49:53.100Z,11.53
2022-10-14T11:52:56.588Z,11.62
2022-10-14T11:56:01.590Z,11.66
2022-10-14T11:59:06.054Z,11.69
2022-10-14T12:02:21.404Z,11.65
2022-10-14T12:05:23.213Z,11.73
2022-10-14T12:08:28.484Z,12.03
2022-10-14T12:11:35.185Z,12.12
2022-10-14T12:14:38.447Z,12.26
2022-10-14T12:17:45.238Z,12.19
2022-10-14T12:20:51.902Z,12.18
2022-10-14T12:23:58.641Z,12.24
2022-10-14T12:27:04.671Z,12.41
2022-10-14T12:30:18.209Z,12.64
2022-10-14T12:33:22.945Z,12.83
2022-10-14T12:36:33.857Z,13.05
2022-10-14T12:39:35.511Z,13.28
2022-10-14T12:42:39.195Z,13.07
2022-10-14T12:45:49.033Z,12.90
2022-10-14T12:48:50.929Z,12.57
2022-10-14T12:51:55.736Z,11.86
2022-10-14T12:54:57.297Z,10.85
2022-10-14T12:58:02.188Z,10.30
2022-10-14T13:01:07.247Z,10.13
2022-10-14T13:04:19.148Z,10.04
2022-10-14T13:07:40.428Z,9.95
2022-10-14T13:10:47.034Z,9.99
2022-10-14T13:13:50.297Z,10.17
2022-10-14T13:16:51.864Z,10.57
2022-10-14T13:19:53.400Z,11.11
2022-10-14T13:23:15.168Z,13.41
2022-10-14T13:26:32.057Z,14.42
2022-10-14T13:29:51.945Z,14.91
2022-10-14T13:32:55.143Z,15.63
2022-10-14T13:36:16.923Z,15.77
2022-10-14T13:39:18.433Z,15.95
2022-10-14T13:42:23.269Z,15.71
2022-10-14T13:45:42.133Z,15.29
2022-10-14T13:48:44.388Z,15.09
2022-10-14T13:51:55.075Z,15.35
2022-10-14T13:55:10.015Z,15.54
2022-10-14T13:58:15.661Z,14.32
2022-10-14T14:01:17.973Z,13.25
2022-10-14T14:04:23.880Z,12.75
2022-10-14T14:11:15.182Z,11.97
2022-10-14T14:14:14.801Z,11.89
2022-10-14T14:17:20.415Z,12.61
2022-10-14T14:20:25.775Z,14.38
2022-10-14T14:23:28.585Z,14.98
2022-10-14T14:26:36.941Z,15.12
2022-10-14T14:29:40.740Z,15.78
2022-10-14T14:32:42.221Z,15.44
2022-10-14T14:35:54.602Z,15.53
2022-10-14T14:39:01.235Z,15.60
2022-10-14T14:42:02.752Z,15.76
2022-10-14T14:45:05.835Z,16.03
2022-10-14T14:48:07.362Z,16.38
2022-10-14T14:51:10.013Z,16.81
2022-10-14T14:54:18.412Z,16.35
2022-10-14T14:57:20.811Z,16.37
2022-10-14T15:00:22.766Z,16.26
2022-10-14T15:03:31.929Z,15.96
2022-10-14T15:06:33.999Z,13.99
2022-10-14T15:09:37.594Z,15.15
2022-10-14T15:12:42.051Z,15.90
2022-10-14T15:15:51.606Z,15.82
2022-10-14T15:19:11.563Z,15.60
2022-10-14T15:22:16.130Z,14.77
2022-10-14T15:25:17.632Z,13.51
2022-10-14T15:28:31.911Z,14.34
2022-10-14T15:31:34.868Z,14.29
2022-10-14T15:34:36.457Z,14.66
2022-10-14T15:37:37.995Z,14.98
2022-10-14T15:40:42.076Z,14.73
2022-10-14T15:43:43.959Z,14.76
2022-10-14T15:47:04.170Z,14.50
2022-10-14T15:50:12.702Z,14.67
2022-10-14T15:53:14.320Z,14.81
2022-10-14T15:56:17.192Z,14.86
2022-10-14T15:59:19.527Z,14.73
2022-10-14T16:02:25.339Z,14.42
2022-10-14T16:05:28.963Z,14.47
2022-10-14T16:08:30.544Z,14.34
2022-10-14T16:11:32.037Z,14.11
2022-10-14T16:14:34.173Z,13.90
2022-10-14T16:17:36.589Z,14.06
2022-10-14T16:20:38.263Z,14.05
2022-10-14T16:23:40.111Z,13.92
2022-10-14T16:26:42.335Z,13.91
2022-10-14T16:29:46.005Z,13.94
2022-10-14T16:32:47.619Z,13.84
2022-10-14T16:35:50.097Z,13.72
2022-10-14T16:38:52.014Z,13.49
2022-10-14T16:41:55.761Z,13.27
2022-10-14T16:44:57.317Z,12.43
2022-10-14T16:47:58.895Z,10.94
2022-10-14T16:51:00.476Z,10.32
2022-10-14T16:54:02.049Z,9.83
2022-10-14T16:57:04.422Z,9.31
2022-10-14T17:00:07.230Z,9.03
2022-10-14T17:03:09.073Z,8.81
2022-10-14T17:06:10.617Z,8.40
2022-10-14T17:09:12.245Z,8.27
2022-10-14T17:12:14.437Z,8.18
2022-10-14T17:15:16.220Z,8.02
2022-10-14T17:18:18.006Z,7.94
2022-10-14T17:21:19.769Z,7.85
2022-10-14T17:24:22.693Z,7.67
2022-10-14T17:27:24.711Z,7.58
2022-10-14T17:30:27.081Z,7.44
2022-10-14T17:33:28.633Z,7.21
2022-10-14T17:36:33.221Z,7.12
2022-10-14T17:39:35.045Z,7.03
2022-10-14T17:42:36.565Z,7.01
2022-10-14T17:45:38.300Z,6.88
2022-10-14T17:48:42.249Z,6.77
2022-10-14T17:51:45.019Z,6.72
2022-10-14T17:54:46.564Z,6.76
2022-10-14T17:57:48.208Z,6.63
2022-10-14T18:00:49.724Z,6.63
2022-10-14T18:03:51.434Z,6.69
2022-10-14T18:06:54.195Z,7.03
2022-10-14T18:09:55.874Z,7.27
2022-10-14T18:12:58.048Z,7.25
2022-10-14T18:16:06.774Z,7.14
2022-10-14T18:19:09.241Z,7.19
2022-10-14T18:22:11.289Z,7.34
2022-10-14T18:25:15.180Z,7.53
2022-10-14T18:28:16.889Z,7.59
2022-10-14T18:31:19.356Z,7.36
2022-10-14T18:34:22.552Z,7.14
2022-10-14T18:37:24.056Z,6.97
2022-10-14T18:40:25.700Z,6.78
2022-10-14T18:43:27.477Z,6.68
2022-10-14T18:46:29.961Z,6.46
2022-10-14T18:49:33.640Z,6.35
2022-10-14T18:52:38.250Z,6.29
2022-10-14T18:55:39.782Z,6.37
2022-10-14T18:58:45.609Z,6.34
2022-10-14T19:01:47.588Z,6.26
2022-10-14T19:04:49.482Z,6.00
2022-10-14T19:07:51.017Z,5.82
2022-10-14T19:11:02.353Z,5.61
2022-10-14T19:14:04.217Z,5.80
2022-10-14T19:17:06.109Z,5.82
2022-10-14T19:20:08.706Z,6.10
2022-10-14T19:23:10.540Z,6.19
2022-10-14T19:26:13.644Z,6.18
2022-10-14T19:29:15.544Z,6.10
2022-10-14T19:32:17.037Z,5.96
2022-10-14T19:35:21.659Z,6.12
2022-10-14T19:38:23.357Z,6.11
2022-10-14T19:41:25.693Z,6.05
2022-10-14T19:44:27.466Z,5.86
2022-10-14T19:47:29.088Z,5.79
2022-10-14T19:50:30.691Z,5.82
2022-10-14T19:53:32.211Z,5.74
2022-10-14T19:56:33.777Z,5.62
2022-10-14T19:59:35.415Z,5.44
2022-10-14T20:05:43.396Z,5.21
2022-10-14T20:08:46.022Z,5.13
2022-10-14T20:11:47.662Z,4.99
2022-10-14T20:14:49.272Z,4.98
2022-10-14T20:17:50.835Z,4.98
2022-10-14T20:20:52.394Z,5.04
2022-10-14T20:23:54.039Z,5.13
2022-10-14T20:26:56.294Z,5.12
2022-10-14T20:29:58.688Z,5.20
2022-10-14T20:33:00.324Z,5.48
2022-10-14T20:36:02.525Z,5.30
2022-10-14T20:39:04.093Z,5.17
2022-10-14T20:42:07.167Z,5.23
2022-10-14T20:45:08.981Z,5.37
2022-10-14T20:48:10.510Z,5.45
2022-10-14T20:51:15.901Z,5.55
2022-10-14T20:54:17.618Z,5.61
2022-10-14T20:57:19.117Z,5.67
2022-10-14T21:00:20.679Z,5.67
2022-10-14T21:03:22.438Z,5.69
2022-10-14T21:06:24.360Z,5.71
2022-10-14T21:09:27.319Z,5.81
2022-10-14T21:12:29.138Z,5.95
2022-10-14T21:15:30.865Z,6.01
2022-10-14T21:18:32.447Z,6.04
2022-10-14T21:21:38.026Z,6.00
2022-10-14T21:24:41.284Z,5.93
2022-10-14T21:27:42.831Z,5.83
2022-10-14T21:30:44.366Z,5.71
2022-10-14T21:33:47.053Z,5.70
2022-10-14T21:36:48.602Z,5.69
2022-10-14T21:39:50.140Z,5.68
2022-10-14T21:42:52.319Z,5.78
2022-10-14T21:45:54.054Z,5.91
2022-10-14T21:48:57.195Z,6.04
2022-10-14T21:51:58.733Z,6.16
2022-10-14T21:55:00.303Z,6.18
2022-10-14T21:58:01.869Z,6.14
2022-10-14T22:01:07.654Z,6.00
2022-10-14T22:04:09.392Z,6.04
2022-10-14T22:07:11.237Z,6.12
2022-10-14T22:10:31.521Z,6.16
2022-10-14T22:13:34.381Z,6.15
2022-10-14T22:16:35.966Z,6.09
2022-10-14T22:19:37.581Z,5.94
2022-10-14T22:22:39.101Z,5.88
2022-10-14T22:25:40.785Z,5.79
2022-10-14T22:28:42.459Z,5.70
2022-10-14T22:31:44.281Z,5.49
2022-10-14T22:34:47.136Z,5.43
2022-10-14T22:37:48.775Z,5.37
2022-10-14T22:40:50.281Z,5.28
2022-10-14T22:43:53.009Z,5.35
2022-10-14T22:46:54.554Z,5.42
2022-10-14T22:49:56.137Z,5.44
2022-10-14T22:52:57.706Z,5.46
2022-10-14T22:55:59.493Z,5.51
2022-10-14T22:59:02.434Z,5.59
2022-10-14T23:02:04.128Z,5.55
2022-10-14T23:05:05.925Z,5.55
2022-10-14T23:08:12.045Z,5.53
2022-10-14T23:11:17.473Z,5.49
2022-10-14T23:14:19.022Z,5.45
2022-10-14T23:17:20.555Z,5.44
2022-10-14T23:20:22.266Z,5.40
2022-10-14T23:23:23.784Z,5.35
2022-10-14T23:26:26.122Z,5.30
2022-10-14T23:29:27.746Z,5.25
2022-10-14T23:32:29.270Z,5.17
2022-10-14T23:35:31.013Z,5.13
2022-10-14T23:38:32.955Z,5.16
2022-10-14T23:41:34.701Z,5.19
2022-10-14T23:44:36.742Z,5.23
2022-10-14T23:47:38.258Z,5.20
2022-10-14T23:50:39.914Z,5.13
2022-10-14T23:53:41.485Z,5.14
2022-10-14T23:56:43.085Z,5.14
2022-10-14T23:59:44.621Z,5.11
